createdAt,value
2018-06-16T00:00:00.166Z,56.40
2018-06-16T00:01:00.228Z,46.88
2018-06-16T00:02:00.388Z,65.19
2018-06-16T00:03:00.555Z,47.36
2018-06-16T00:04:00.720Z,50.78
2018-06-16T00:05:00.886Z,49.32
2018-06-16T00:06:01.056Z,57.62
2018-06-16T00:07:01.265Z,43.21
2018-06-16T00:08:01.395Z,53.22
2018-06-16T00:09:01.556Z,56.64
2018-06-16T00:14:52.336Z,65.19
2018-06-16T00:15:52.533Z,65.92
2018-06-16T00:16:52.671Z,62.01
2018-06-16T00:17:52.838Z,54.20
2018-06-16T00:18:53.007Z,66.89
2018-06-16T00:19:53.184Z,54.93
2018-06-16T00:20:53.352Z,60.30
2018-06-16T00:21:53.532Z,63.96
2018-06-16T00:22:53.687Z,51.27
2018-06-16T00:23:53.860Z,57.62
2018-06-16T00:24:54.023Z,41.99
2018-06-16T00:25:54.191Z,47.61
2018-06-16T00:26:54.357Z,49.32
2018-06-16T00:27:54.526Z,52.73
2018-06-16T00:31:37.257Z,58.11
2018-06-16T00:32:37.421Z,61.77
2018-06-16T00:33:37.583Z,54.20
2018-06-16T00:34:37.748Z,52.25
2018-06-16T00:35:37.917Z,46.39
2018-06-16T00:36:38.083Z,58.35
2018-06-16T00:37:38.248Z,57.86
2018-06-16T00:38:38.427Z,51.51
2018-06-16T00:39:38.584Z,63.23
2018-06-16T00:40:38.758Z,64.45
2018-06-16T00:41:38.932Z,60.30
2018-06-16T00:42:39.103Z,64.70
2018-06-16T00:43:39.271Z,55.18
2018-06-16T00:44:39.445Z,49.80
2018-06-16T00:50:50.223Z,59.81
2018-06-16T00:51:50.396Z,66.41
2018-06-16T00:52:50.580Z,54.93
2018-06-16T00:53:50.732Z,50.05
2018-06-16T00:54:50.894Z,48.83
2018-06-16T00:55:51.059Z,48.83
2018-06-16T00:56:51.227Z,42.97
2018-06-16T00:57:51.423Z,40.28
2018-06-16T00:58:51.564Z,46.39
2018-06-16T00:59:51.732Z,40.53
2018-06-16T01:00:51.897Z,52.73
2018-06-16T01:01:52.074Z,50.29
2018-06-16T01:02:52.250Z,49.32
2018-06-16T01:03:52.414Z,42.72
2018-06-16T01:07:34.874Z,64.94
2018-06-16T01:08:35.041Z,52.49
2018-06-16T01:09:35.228Z,47.36
2018-06-16T01:10:35.372Z,49.07
2018-06-16T01:11:35.540Z,47.85
2018-06-16T01:12:35.712Z,50.05
2018-06-16T01:13:35.880Z,50.29
2018-06-16T01:14:36.045Z,47.85
2018-06-16T01:15:36.210Z,67.63
2018-06-16T01:16:36.376Z,68.36
2018-06-16T01:17:36.539Z,50.05
2018-06-16T01:18:36.717Z,51.27
2018-06-16T01:19:36.863Z,60.79
2018-06-16T01:20:37.033Z,58.84
2018-06-16T01:24:09.470Z,71.53
2018-06-16T01:25:09.638Z,51.51
2018-06-16T01:26:09.808Z,55.42
2018-06-16T01:27:09.980Z,51.27
2018-06-16T01:28:10.151Z,61.04
2018-06-16T01:29:10.308Z,40.04
2018-06-16T01:30:11.336Z,60.30
2018-06-16T01:31:10.612Z,52.98
2018-06-16T01:32:10.798Z,46.88
2018-06-16T01:33:10.970Z,53.96
2018-06-16T01:34:11.134Z,42.24
2018-06-16T01:35:11.299Z,46.88
2018-06-16T01:36:11.464Z,46.14
2018-06-16T01:37:11.627Z,45.17
2018-06-16T01:40:44.070Z,43.70
2018-06-16T01:41:44.239Z,43.21
2018-06-16T01:42:44.397Z,48.83
2018-06-16T01:43:44.581Z,51.03
2018-06-16T01:44:44.742Z,42.97
2018-06-16T01:45:44.908Z,53.22
2018-06-16T01:46:45.071Z,47.85
2018-06-16T01:47:45.240Z,43.95
2018-06-16T01:48:45.411Z,47.85
2018-06-16T01:52:17.860Z,53.96
2018-06-16T01:53:18.028Z,49.80
2018-06-16T01:54:18.200Z,49.80
2018-06-16T01:55:18.364Z,44.43
2018-06-16T01:56:18.522Z,50.29
2018-06-16T01:57:18.696Z,44.68
2018-06-16T01:58:18.861Z,43.46
2018-06-16T01:59:19.031Z,52.73
2018-06-16T02:00:19.204Z,46.39
2018-06-16T02:01:19.371Z,52.00
2018-06-16T02:02:19.533Z,47.36
2018-06-16T02:03:19.701Z,56.88
2018-06-16T02:04:19.856Z,50.54
2018-06-16T02:05:20.023Z,53.47
2018-06-16T02:08:52.398Z,42.97
2018-06-16T02:09:52.569Z,43.46
2018-06-16T02:10:52.751Z,43.21
2018-06-16T02:11:52.893Z,44.43
2018-06-16T02:12:53.068Z,50.78
2018-06-16T02:13:53.232Z,53.22
2018-06-16T02:14:53.400Z,74.22
2018-06-16T02:15:53.560Z,46.88
2018-06-16T02:16:53.741Z,46.39
2018-06-16T02:17:53.896Z,49.07
2018-06-16T02:18:54.063Z,46.39
2018-06-16T02:19:54.229Z,53.96
2018-06-16T02:20:54.396Z,44.19
2018-06-16T02:21:54.566Z,56.88
2018-06-16T02:25:37.300Z,45.17
2018-06-16T02:26:37.465Z,45.65
2018-06-16T02:27:37.632Z,45.17
2018-06-16T02:28:37.806Z,50.54
2018-06-16T02:29:37.969Z,54.93
2018-06-16T02:30:38.135Z,54.20
2018-06-16T02:31:38.315Z,54.93
2018-06-16T02:32:38.471Z,54.44
2018-06-16T02:33:38.634Z,52.00
2018-06-16T02:34:38.815Z,52.73
2018-06-16T02:35:39.001Z,53.71
2018-06-16T02:36:39.167Z,56.64
2018-06-16T02:37:39.332Z,53.22
2018-06-16T02:38:39.503Z,54.93
2018-06-16T02:42:21.938Z,48.83
2018-06-16T02:43:22.105Z,65.43
2018-06-16T02:44:22.269Z,50.78
2018-06-16T02:45:22.437Z,57.13
2018-06-16T02:46:22.600Z,50.54
2018-06-16T02:47:22.770Z,45.90
2018-06-16T02:48:22.933Z,49.07
2018-06-16T02:49:23.105Z,51.51
2018-06-16T02:50:23.347Z,61.04
2018-06-16T02:56:14.037Z,80.57
2018-06-16T02:57:14.200Z,75.93
2018-06-16T02:58:14.359Z,89.60
2018-06-16T02:59:14.530Z,70.56
2018-06-16T03:00:14.709Z,68.60
2018-06-16T03:01:14.858Z,60.06
2018-06-16T03:02:15.024Z,57.86
2018-06-16T03:03:15.208Z,54.93
2018-06-16T03:04:15.360Z,55.66
2018-06-16T03:05:15.529Z,66.41
2018-06-16T03:06:15.694Z,75.93
2018-06-16T03:07:15.866Z,59.33
2018-06-16T03:08:16.033Z,64.70
2018-06-16T03:09:16.206Z,54.20
2018-06-16T03:13:56.969Z,55.66
2018-06-16T03:14:59.018Z,66.89
2018-06-16T03:15:57.308Z,65.43
2018-06-16T03:16:57.475Z,50.05
2018-06-16T03:17:57.643Z,66.41
2018-06-16T03:18:57.818Z,57.37
2018-06-16T03:19:57.983Z,73.97
2018-06-16T03:20:58.138Z,54.69
2018-06-16T03:21:58.307Z,58.59
2018-06-16T03:22:58.476Z,53.71
2018-06-16T03:23:58.644Z,53.71
2018-06-16T03:24:58.811Z,53.96
2018-06-16T03:25:58.979Z,59.57
2018-06-16T03:26:59.139Z,54.44
2018-06-16T03:30:41.884Z,54.44
2018-06-16T03:31:42.053Z,54.20
2018-06-16T03:32:44.928Z,62.50
2018-06-16T03:33:42.345Z,62.74
2018-06-16T03:34:42.511Z,54.69
2018-06-16T03:35:42.676Z,54.69
2018-06-16T03:36:42.841Z,57.13
2018-06-16T03:37:43.011Z,59.81
2018-06-16T03:38:43.172Z,58.35
2018-06-16T03:39:43.337Z,60.30
2018-06-16T03:40:43.504Z,55.42
2018-06-16T03:41:43.670Z,54.69
2018-06-16T03:42:43.847Z,55.91
2018-06-16T03:43:44.005Z,65.19
2018-06-16T03:47:16.448Z,63.72
2018-06-16T03:48:16.616Z,66.65
2018-06-16T03:49:16.788Z,56.15
2018-06-16T03:50:16.952Z,56.40
2018-06-16T03:51:17.118Z,54.44
2018-06-16T03:52:17.286Z,63.96
2018-06-16T03:53:17.451Z,75.68
2018-06-16T03:54:17.616Z,72.27
2018-06-16T03:55:17.783Z,70.80
2018-06-16T03:56:17.952Z,65.43
2018-06-16T03:57:18.115Z,80.81
2018-06-16T03:58:18.283Z,67.63
2018-06-16T03:59:18.449Z,71.53
2018-06-16T04:00:18.618Z,80.57
2018-06-16T04:04:01.352Z,70.31
2018-06-16T04:05:01.519Z,69.82
2018-06-16T04:06:01.681Z,76.66
2018-06-16T04:07:01.857Z,59.08
2018-06-16T04:08:02.021Z,64.45
2018-06-16T04:09:02.194Z,64.21
2018-06-16T04:10:02.354Z,62.74
2018-06-16T04:11:02.522Z,57.86
2018-06-16T04:12:02.690Z,56.15
2018-06-16T04:13:02.855Z,63.48
2018-06-16T04:14:03.022Z,60.55
2018-06-16T04:15:03.189Z,65.92
2018-06-16T04:16:03.356Z,54.93
2018-06-16T04:17:03.524Z,55.18
2018-06-16T04:20:45.967Z,57.37
2018-06-16T04:21:46.135Z,56.15
2018-06-16T04:22:46.298Z,78.13
2018-06-16T04:23:46.467Z,55.42
2018-06-16T04:24:46.627Z,54.44
2018-06-16T04:25:46.792Z,61.04
2018-06-16T04:26:46.958Z,72.51
2018-06-16T04:27:47.129Z,79.59
2018-06-16T04:28:47.293Z,69.82
2018-06-16T04:29:47.457Z,72.75
2018-06-16T04:30:47.624Z,79.59
2018-06-16T04:31:47.798Z,78.13
2018-06-16T04:32:47.961Z,75.93
2018-06-16T04:33:48.127Z,80.81
2018-06-16T04:40:28.843Z,87.16
2018-06-16T04:41:29.014Z,70.56
2018-06-16T04:42:29.180Z,85.21
2018-06-16T04:43:29.349Z,72.75
2018-06-16T04:44:29.513Z,52.00
2018-06-16T04:45:29.751Z,54.93
2018-06-16T04:46:29.843Z,63.48
2018-06-16T04:47:30.010Z,58.84
2018-06-16T04:48:30.176Z,52.49
2018-06-16T04:49:30.342Z,65.67
2018-06-16T04:50:30.508Z,65.67
2018-06-16T04:51:30.674Z,61.04
2018-06-16T04:52:30.841Z,64.70
2018-06-16T04:53:31.028Z,52.73
2018-06-16T04:57:13.741Z,58.35
2018-06-16T04:58:13.906Z,59.81
2018-06-16T04:59:14.077Z,57.37
2018-06-16T05:00:14.232Z,54.93
2018-06-16T05:01:14.400Z,56.40
2018-06-16T05:02:14.564Z,63.72
2018-06-16T05:03:14.723Z,68.85
2018-06-16T05:04:14.889Z,67.38
2018-06-16T05:05:15.056Z,62.74
2018-06-16T05:06:15.230Z,58.35
2018-06-16T05:07:15.395Z,64.70
2018-06-16T05:08:15.546Z,60.79
2018-06-16T05:09:15.711Z,65.19
2018-06-16T05:10:15.876Z,71.29
2018-06-16T05:13:58.604Z,65.67
2018-06-16T05:14:58.771Z,66.65
2018-06-16T05:15:58.932Z,61.77
2018-06-16T05:16:59.149Z,78.61
2018-06-16T05:17:59.261Z,62.74
2018-06-16T05:18:59.430Z,67.63
2018-06-16T05:19:59.595Z,57.37
2018-06-16T05:20:59.761Z,67.38
2018-06-16T05:21:59.973Z,62.99
2018-06-16T05:23:00.087Z,59.08
2018-06-16T05:24:00.264Z,54.69
2018-06-16T05:25:00.428Z,62.74
2018-06-16T05:26:00.603Z,65.43
2018-06-16T05:27:00.790Z,66.89
2018-06-16T05:30:33.229Z,73.73
2018-06-16T05:31:33.388Z,71.78
2018-06-16T05:32:33.552Z,58.84
2018-06-16T05:33:33.713Z,62.99
2018-06-16T05:34:33.881Z,65.67
2018-06-16T05:35:34.846Z,62.99
2018-06-16T05:36:34.257Z,61.28
2018-06-16T05:37:34.478Z,67.63
2018-06-16T05:38:34.597Z,63.23
2018-06-16T05:39:34.754Z,70.56
2018-06-16T05:40:34.929Z,67.63
2018-06-16T05:41:35.096Z,68.85
2018-06-16T05:42:35.261Z,66.41
2018-06-16T05:43:35.429Z,68.85
2018-06-16T05:47:07.873Z,63.72
2018-06-16T05:48:08.038Z,57.62
2018-06-16T05:49:08.207Z,76.66
2018-06-16T05:50:08.371Z,67.63
2018-06-16T05:51:08.538Z,71.53
2018-06-16T05:52:09.230Z,64.94
2018-06-16T05:53:08.911Z,70.80
2018-06-16T05:54:16.555Z,70.31
2018-06-16T05:55:09.184Z,83.01
2018-06-16T05:56:09.345Z,66.16
2018-06-16T05:57:09.516Z,64.45
2018-06-16T05:58:09.682Z,64.94
2018-06-16T05:59:09.849Z,68.12
2018-06-16T06:00:10.766Z,70.07
2018-06-16T06:01:11.742Z,75.20
2018-06-16T06:02:10.281Z,55.91
2018-06-16T06:03:10.449Z,60.30
2018-06-16T06:04:11.180Z,67.63
2018-06-16T06:05:10.780Z,65.19
2018-06-16T06:06:10.948Z,63.23
2018-06-16T06:07:11.116Z,64.21
2018-06-16T06:08:11.284Z,75.93
2018-06-16T06:11:53.736Z,68.85
2018-06-16T06:12:53.897Z,73.49
2018-06-16T06:13:54.075Z,66.16
2018-06-16T06:14:55.086Z,77.64
2018-06-16T06:15:54.385Z,76.90
2018-06-16T06:16:54.547Z,66.16
2018-06-16T06:17:54.712Z,65.67
2018-06-16T06:18:54.883Z,66.65
2018-06-16T06:19:55.064Z,66.16
2018-06-16T06:20:55.224Z,67.63
2018-06-16T06:21:55.391Z,70.07
2018-06-16T06:22:55.566Z,63.72
2018-06-16T06:23:55.736Z,65.92
2018-06-16T06:24:55.897Z,80.08
2018-06-16T06:28:38.283Z,67.63
2018-06-16T06:29:38.436Z,65.92
2018-06-16T06:30:38.618Z,72.27
2018-06-16T06:31:38.787Z,70.31
2018-06-16T06:32:38.942Z,65.19
2018-06-16T06:33:39.779Z,82.28
2018-06-16T06:34:39.262Z,70.56
2018-06-16T06:35:39.426Z,73.00
2018-06-16T06:36:39.585Z,61.04
2018-06-16T06:37:39.766Z,60.79
2018-06-16T06:38:39.927Z,64.45
2018-06-16T06:39:40.097Z,71.29
2018-06-16T06:40:40.262Z,74.22
2018-06-16T06:41:40.432Z,80.08
2018-06-16T06:45:13.737Z,69.09
2018-06-16T06:46:13.035Z,63.23
2018-06-16T06:47:13.200Z,68.85
2018-06-16T06:48:13.386Z,67.14
2018-06-16T06:49:13.550Z,62.26
2018-06-16T06:50:13.718Z,65.67
2018-06-16T06:51:13.889Z,66.16
2018-06-16T06:52:14.071Z,64.94
2018-06-16T06:53:14.270Z,79.35
2018-06-16T06:54:14.455Z,68.36
2018-06-16T06:55:15.234Z,61.52
2018-06-16T06:56:14.814Z,63.72
2018-06-16T06:57:22.982Z,79.35
2018-06-16T06:58:15.507Z,62.50
2018-06-16T06:59:23.278Z,69.34
2018-06-16T07:00:15.448Z,77.64
2018-06-16T07:01:15.683Z,73.00
2018-06-16T07:02:16.301Z,73.00
2018-06-16T07:03:15.836Z,69.09
2018-06-16T07:04:16.019Z,58.59
2018-06-16T07:05:16.195Z,67.87
2018-06-16T07:06:16.360Z,63.72
2018-06-16T07:07:16.569Z,68.60
2018-06-16T07:08:16.734Z,74.71
2018-06-16T07:09:16.904Z,64.70
2018-06-16T07:13:00.204Z,68.12
2018-06-16T07:13:59.494Z,65.19
2018-06-16T07:14:59.663Z,67.14
2018-06-16T07:15:59.924Z,68.85
2018-06-16T07:17:00.051Z,68.12
2018-06-16T07:18:00.274Z,72.51
2018-06-16T07:19:00.651Z,83.50
2018-06-16T07:22:32.716Z,74.46
2018-06-16T07:23:40.074Z,67.14
2018-06-16T07:24:33.115Z,73.97
2018-06-16T07:25:33.270Z,63.72
2018-06-16T07:26:33.456Z,70.56
2018-06-16T07:27:41.061Z,67.38
2018-06-16T07:28:33.722Z,69.58
2018-06-16T07:29:33.921Z,63.48
2018-06-16T07:30:34.068Z,73.73
2018-06-16T07:31:34.237Z,66.41
2018-06-16T07:32:34.434Z,71.29
2018-06-16T07:33:34.599Z,68.12
2018-06-16T07:34:34.798Z,65.92
2018-06-16T07:35:34.964Z,73.24
2018-06-16T07:36:35.131Z,68.12
2018-06-16T07:37:35.835Z,63.96
2018-06-16T07:38:35.505Z,63.48
2018-06-16T07:39:35.704Z,78.37
2018-06-16T07:40:35.841Z,69.82
2018-06-16T07:41:36.013Z,67.38
2018-06-16T07:45:18.755Z,73.00
2018-06-16T07:46:18.928Z,65.92
2018-06-16T07:47:19.103Z,68.12
2018-06-16T07:48:19.260Z,61.04
2018-06-16T07:49:19.524Z,70.80
2018-06-16T07:50:19.660Z,75.93
2018-06-16T07:51:27.284Z,75.93
2018-06-16T07:52:19.949Z,71.53
2018-06-16T07:53:20.140Z,71.78
2018-06-16T07:54:20.228Z,71.04
2018-06-16T07:55:28.080Z,81.54
2018-06-16T07:56:20.616Z,65.19
2018-06-16T07:57:20.800Z,74.95
2018-06-16T07:58:20.968Z,56.15
2018-06-16T07:59:21.136Z,65.92
2018-06-16T08:00:21.319Z,71.78
2018-06-16T08:01:21.479Z,67.14
2018-06-16T08:02:21.647Z,75.44
2018-06-16T08:03:21.816Z,72.51
2018-06-16T08:04:22.040Z,67.14
2018-06-16T08:05:22.196Z,68.85
2018-06-16T08:06:22.370Z,68.85
2018-06-16T08:07:22.540Z,77.64
2018-06-16T08:08:22.706Z,67.14
2018-06-16T08:09:22.895Z,68.36
2018-06-16T08:13:05.612Z,63.48
2018-06-16T08:14:05.783Z,65.67
2018-06-16T08:15:05.946Z,65.43
2018-06-16T08:16:06.114Z,70.56
2018-06-16T08:17:06.281Z,68.60
2018-06-16T08:18:06.477Z,71.04
2018-06-16T08:19:06.641Z,77.39
2018-06-16T08:20:06.790Z,70.31
2018-06-16T08:21:06.983Z,64.21
2018-06-16T08:22:07.152Z,68.60
2018-06-16T08:23:07.323Z,70.07
2018-06-16T08:24:07.506Z,63.72
2018-06-16T08:25:07.695Z,69.09
2018-06-16T08:26:07.863Z,73.24
2018-06-16T08:29:50.600Z,69.82
2018-06-16T08:30:50.785Z,72.51
2018-06-16T08:31:50.957Z,68.60
2018-06-16T08:32:51.142Z,70.56
2018-06-16T08:33:51.330Z,64.70
2018-06-16T08:34:51.565Z,69.34
2018-06-16T08:35:51.683Z,66.16
2018-06-16T08:36:51.857Z,65.92
2018-06-16T08:37:52.013Z,69.34
2018-06-16T08:38:53.118Z,69.09
2018-06-16T08:39:52.321Z,65.67
2018-06-16T08:40:52.492Z,66.16
2018-06-16T08:41:52.669Z,74.71
2018-06-16T08:43:00.816Z,62.99
2018-06-16T08:43:52.961Z,65.19
2018-06-16T08:44:53.176Z,69.82
2018-06-16T08:45:53.324Z,71.53
2018-06-16T08:47:01.470Z,67.38
2018-06-16T08:47:53.706Z,65.67
2018-06-16T08:49:01.105Z,67.38
2018-06-16T08:49:54.022Z,70.80
2018-06-16T08:50:54.238Z,90.33
2018-06-16T08:51:54.451Z,65.92
2018-06-16T08:52:54.608Z,63.23
2018-06-16T08:53:54.777Z,67.38
2018-06-16T08:54:54.959Z,74.95
2018-06-16T08:55:55.218Z,73.00
2018-06-16T08:56:55.528Z,65.19
2018-06-16T08:57:55.509Z,75.44
2018-06-16T08:58:56.053Z,66.89
2018-06-16T08:59:55.856Z,75.68
2018-06-16T09:00:56.094Z,87.16
2018-06-16T09:01:56.389Z,67.87
2018-06-16T09:02:56.375Z,62.50
2018-06-16T09:06:29.173Z,69.09
2018-06-16T09:07:29.372Z,70.07
2018-06-16T09:08:29.550Z,66.41
2018-06-16T09:09:29.727Z,73.49
2018-06-16T09:10:29.892Z,76.90
2018-06-16T09:11:30.113Z,64.45
2018-06-16T09:12:30.230Z,69.82
2018-06-16T09:13:30.443Z,71.53
2018-06-16T09:14:30.510Z,75.20
2018-06-16T09:18:02.932Z,72.75
2018-06-16T09:19:03.103Z,73.73
2018-06-16T09:20:03.277Z,66.16
2018-06-16T09:21:03.445Z,70.07
2018-06-16T09:22:05.307Z,80.08
2018-06-16T09:23:03.778Z,68.60
2018-06-16T09:24:06.803Z,71.53
2018-06-16T09:25:04.135Z,76.66
2018-06-16T09:26:04.375Z,71.78
2018-06-16T09:29:47.072Z,72.51
2018-06-16T09:30:54.890Z,70.31
2018-06-16T09:31:47.489Z,67.63
2018-06-16T09:32:47.602Z,85.21
2018-06-16T09:33:47.772Z,72.27
2018-06-16T09:34:47.944Z,74.71
2018-06-16T09:35:48.110Z,80.32
2018-06-16T09:36:48.281Z,78.86
2018-06-16T09:37:48.456Z,75.68
2018-06-16T09:38:48.632Z,75.68
2018-06-16T09:39:48.802Z,72.27
2018-06-16T09:40:56.934Z,71.78
2018-06-16T09:41:49.101Z,67.38
2018-06-16T09:42:49.275Z,78.13
2018-06-16T09:43:50.180Z,69.82
2018-06-16T09:44:49.595Z,66.65
2018-06-16T09:45:49.764Z,68.60
2018-06-16T09:46:49.957Z,67.87
2018-06-16T09:47:50.204Z,80.08
2018-06-16T09:48:50.306Z,76.66
2018-06-16T09:49:50.510Z,64.21
2018-06-16T09:50:58.331Z,66.41
2018-06-16T09:51:50.826Z,75.93
2018-06-16T09:52:50.918Z,71.04
2018-06-16T09:53:51.140Z,70.07
2018-06-16T09:54:51.343Z,67.38
2018-06-16T09:55:51.438Z,69.34
2018-06-16T09:56:59.122Z,72.75
2018-06-16T09:57:51.860Z,67.14
2018-06-16T09:58:51.963Z,71.04
2018-06-16T09:59:53.824Z,69.58
2018-06-16T10:00:52.233Z,72.51
2018-06-16T10:01:52.423Z,76.42
2018-06-16T10:02:52.607Z,75.44
2018-06-16T10:03:52.765Z,65.92
2018-06-16T10:04:52.932Z,64.70
2018-06-16T10:05:53.102Z,69.09
2018-06-16T10:06:53.268Z,70.56
2018-06-16T10:07:53.444Z,70.80
2018-06-16T10:08:53.615Z,66.41
2018-06-16T10:09:54.785Z,73.97
2018-06-16T10:10:53.979Z,76.17
2018-06-16T10:14:27.403Z,68.12
2018-06-16T10:15:27.638Z,62.01
2018-06-16T10:16:35.440Z,67.14
2018-06-16T10:17:27.945Z,65.19
2018-06-16T10:18:28.117Z,70.07
2018-06-16T10:19:28.279Z,74.22
2018-06-16T10:20:28.453Z,69.58
2018-06-16T10:21:28.705Z,64.94
2018-06-16T10:22:28.783Z,75.20
2018-06-16T10:23:28.952Z,73.00
2018-06-16T10:24:29.127Z,77.88
2018-06-16T10:25:29.296Z,78.13
2018-06-16T10:26:29.484Z,66.41
2018-06-16T10:32:35.202Z,69.82
2018-06-16T10:33:42.507Z,74.22
2018-06-16T10:34:36.096Z,75.20
2018-06-16T10:35:35.710Z,72.02
2018-06-16T10:36:35.857Z,67.87
2018-06-16T10:37:36.066Z,72.51
2018-06-16T10:38:36.234Z,78.61
2018-06-16T10:39:36.406Z,71.78
2018-06-16T10:40:36.621Z,70.56
2018-06-16T10:41:36.826Z,74.22
2018-06-16T10:42:37.008Z,71.04
2018-06-16T10:47:44.898Z,70.56
2018-06-16T10:48:53.051Z,70.80
2018-06-16T10:49:45.223Z,66.65
2018-06-16T10:50:45.394Z,67.14
2018-06-16T10:51:46.195Z,71.04
2018-06-16T10:52:45.729Z,66.65
2018-06-16T10:53:45.948Z,69.34
2018-06-16T10:54:46.079Z,64.94
2018-06-16T10:55:54.261Z,68.60
2018-06-16T10:56:46.431Z,77.64
2018-06-16T10:57:46.636Z,72.51
2018-06-16T10:58:46.805Z,73.24
2018-06-16T10:59:46.980Z,72.75
2018-06-16T11:00:47.162Z,85.21
2018-06-16T11:01:47.333Z,76.17
2018-06-16T11:02:47.535Z,70.80
2018-06-16T11:03:47.716Z,70.56
2018-06-16T11:04:47.880Z,66.65
2018-06-16T11:05:48.084Z,74.46
2018-06-16T11:09:30.988Z,81.05
2018-06-16T11:10:33.904Z,73.73
2018-06-16T11:11:31.909Z,75.93
2018-06-16T11:12:31.564Z,68.60
2018-06-16T11:13:31.632Z,66.65
2018-06-16T11:14:31.833Z,67.38
2018-06-16T11:15:39.136Z,80.32
2018-06-16T11:16:32.178Z,68.60
2018-06-16T11:17:33.919Z,74.46
2018-06-16T11:18:32.463Z,81.54
2018-06-16T11:19:32.634Z,66.16
2018-06-16T11:20:32.824Z,70.56
2018-06-16T11:21:32.978Z,73.24
2018-06-16T11:22:33.150Z,66.16
2018-06-16T11:23:33.336Z,71.78
2018-06-16T11:24:33.542Z,72.51
2018-06-16T11:25:33.714Z,71.29
2018-06-16T11:26:33.884Z,67.38
2018-06-16T11:27:34.061Z,71.78
2018-06-16T11:28:41.892Z,67.63
2018-06-16T11:29:34.428Z,69.58
2018-06-16T11:30:34.602Z,76.42
2018-06-16T11:31:34.771Z,76.42
2018-06-16T11:32:34.943Z,77.15
2018-06-16T11:33:35.155Z,68.12
2018-06-16T11:34:35.318Z,71.29
2018-06-16T11:35:35.489Z,70.07
2018-06-16T11:36:35.671Z,74.46
2018-06-16T11:37:35.831Z,65.19
2018-06-16T11:38:36.012Z,69.82
2018-06-16T11:39:36.952Z,78.37
2018-06-16T11:40:36.402Z,76.42
2018-06-16T11:41:36.566Z,64.21
2018-06-16T11:42:36.744Z,79.10
2018-06-16T11:46:19.470Z,72.51
2018-06-16T11:47:20.548Z,67.87
2018-06-16T11:48:19.844Z,64.94
2018-06-16T11:49:20.017Z,76.17
2018-06-16T11:50:20.191Z,75.20
2018-06-16T11:51:20.356Z,76.42
2018-06-16T11:52:20.531Z,76.42
2018-06-16T11:53:20.704Z,69.34
2018-06-16T11:54:20.886Z,73.24
2018-06-16T11:55:21.061Z,69.09
2018-06-16T11:56:21.253Z,73.00
2018-06-16T11:57:21.430Z,75.93
2018-06-16T11:58:21.593Z,63.72
2018-06-16T11:59:21.901Z,79.35
2018-06-16T12:03:04.306Z,77.64
2018-06-16T12:04:04.466Z,71.29
2018-06-16T12:05:04.624Z,75.68
2018-06-16T12:06:04.796Z,72.75
2018-06-16T12:07:04.963Z,83.01
2018-06-16T12:08:05.136Z,76.90
2018-06-16T12:09:05.350Z,66.89
2018-06-16T12:10:05.501Z,67.63
2018-06-16T12:11:05.696Z,70.07
2018-06-16T12:12:13.556Z,68.85
2018-06-16T12:13:05.983Z,66.16
2018-06-16T12:14:06.173Z,65.67
2018-06-16T12:15:11.073Z,81.05
2018-06-16T12:16:06.583Z,77.88
2018-06-16T12:17:06.779Z,74.71
2018-06-16T12:18:06.976Z,62.26
2018-06-16T12:19:07.178Z,71.04
2018-06-16T12:20:07.350Z,65.92
2018-06-16T12:21:07.518Z,84.72
2018-06-16T12:22:08.567Z,70.56
2018-06-16T12:23:07.916Z,71.29
2018-06-16T12:24:08.097Z,72.75
2018-06-16T12:25:08.275Z,70.80
2018-06-16T12:26:08.433Z,73.49
2018-06-16T12:29:50.986Z,73.00
2018-06-16T12:30:51.077Z,72.02
2018-06-16T12:31:51.251Z,69.34
2018-06-16T12:32:52.246Z,68.12
2018-06-16T12:33:51.541Z,71.53
2018-06-16T12:34:51.713Z,73.24
2018-06-16T12:35:51.893Z,73.49
2018-06-16T12:36:52.065Z,68.36
2018-06-16T12:37:52.237Z,78.13
2018-06-16T12:38:52.409Z,72.02
2018-06-16T12:39:52.590Z,63.23
2018-06-16T12:41:00.780Z,74.46
2018-06-16T12:41:52.979Z,76.17
2018-06-16T12:42:53.834Z,70.80
2018-06-16T12:43:53.271Z,80.81
2018-06-16T12:44:53.448Z,66.65
2018-06-16T12:45:54.253Z,76.90
2018-06-16T12:47:00.957Z,74.71
2018-06-16T12:47:53.993Z,70.31
2018-06-16T12:48:54.165Z,81.05
2018-06-16T12:49:54.335Z,74.71
2018-06-16T12:50:54.554Z,85.21
2018-06-16T12:51:54.707Z,66.41
2018-06-16T12:52:54.880Z,70.31
2018-06-16T12:53:55.059Z,66.16
2018-06-16T12:54:55.228Z,71.78
2018-06-16T12:55:55.400Z,70.80
2018-06-16T12:56:55.622Z,72.75
2018-06-16T12:57:55.806Z,73.97
2018-06-16T12:58:55.926Z,71.29
2018-06-16T12:59:56.100Z,72.02
2018-06-16T13:01:05.211Z,67.38
2018-06-16T13:01:56.494Z,73.97
2018-06-16T13:02:56.710Z,69.09
2018-06-16T13:03:56.907Z,63.96
2018-06-16T13:04:56.972Z,72.27
2018-06-16T13:05:57.105Z,71.04
2018-06-16T13:06:57.361Z,74.95
2018-06-16T13:07:57.508Z,76.66
2018-06-16T13:08:57.665Z,68.60
2018-06-16T13:09:57.848Z,84.96
2018-06-16T13:10:58.886Z,72.75
2018-06-16T13:11:58.166Z,84.72
2018-06-16T13:12:58.349Z,71.04
2018-06-16T13:14:06.487Z,67.63
2018-06-16T13:14:58.651Z,70.07
2018-06-16T13:15:58.838Z,74.46
2018-06-16T13:16:59.000Z,72.02
2018-06-16T13:17:59.170Z,71.78
2018-06-16T13:18:59.360Z,71.78
2018-06-16T13:19:59.627Z,73.97
2018-06-16T13:21:00.368Z,80.32
2018-06-16T13:21:59.833Z,74.95
2018-06-16T13:23:08.105Z,74.46
2018-06-16T13:24:00.136Z,72.02
2018-06-16T13:25:07.864Z,94.48
2018-06-16T13:26:00.425Z,75.93
2018-06-16T13:27:00.590Z,76.42
2018-06-16T13:28:00.761Z,80.32
2018-06-16T13:29:00.935Z,79.10
2018-06-16T13:30:01.109Z,73.24
2018-06-16T13:31:01.293Z,72.51
2018-06-16T13:32:02.391Z,75.20
2018-06-16T13:33:01.691Z,66.41
2018-06-16T13:34:01.868Z,70.07
2018-06-16T13:35:02.892Z,74.46
2018-06-16T13:36:02.188Z,71.29
2018-06-16T13:37:02.366Z,73.00
2018-06-16T13:38:02.538Z,77.64
2018-06-16T13:39:10.407Z,78.13
2018-06-16T13:40:02.833Z,69.82
2018-06-16T13:43:37.131Z,72.02
2018-06-16T13:44:35.804Z,68.60
2018-06-16T13:45:43.446Z,79.10
2018-06-16T13:46:36.109Z,75.44
2018-06-16T13:47:36.277Z,82.76
2018-06-16T13:48:36.530Z,79.83
2018-06-16T13:49:36.647Z,66.89
2018-06-16T13:50:36.825Z,73.00
2018-06-16T13:51:36.996Z,71.53
2018-06-16T13:52:37.185Z,75.44
2018-06-16T13:53:38.194Z,79.35
2018-06-16T13:54:37.526Z,72.27
2018-06-16T13:59:39.755Z,69.34
2018-06-16T14:01:40.265Z,73.97
2018-06-16T14:02:34.765Z,73.97
2018-06-16T14:03:32.871Z,71.78
2018-06-16T14:04:24.040Z,74.95
2018-06-16T14:05:24.205Z,68.85
2018-06-16T14:06:24.379Z,67.63
2018-06-16T14:07:24.580Z,71.29
2018-06-16T14:08:24.804Z,75.68
2018-06-16T14:09:24.953Z,71.04
2018-06-16T14:10:25.119Z,69.09
2018-06-16T14:11:25.295Z,71.53
2018-06-16T14:12:25.468Z,81.54
2018-06-16T14:13:25.654Z,69.82
2018-06-16T14:14:25.843Z,71.04
2018-06-16T14:15:26.019Z,67.38
2018-06-16T14:16:26.184Z,75.68
2018-06-16T14:17:26.412Z,74.22
2018-06-16T14:18:26.460Z,69.09
2018-06-16T14:22:08.865Z,75.44
2018-06-16T14:23:09.010Z,69.58
2018-06-16T14:24:09.190Z,78.37
2018-06-16T14:25:09.395Z,66.16
2018-06-16T14:26:09.565Z,70.80
2018-06-16T14:27:09.762Z,74.71
2018-06-16T14:28:10.190Z,95.21
2018-06-16T14:29:10.149Z,68.12
2018-06-16T14:30:18.467Z,71.78
2018-06-16T14:31:10.481Z,72.51
2018-06-16T14:32:10.654Z,71.04
2018-06-16T14:33:11.803Z,72.75
2018-06-16T14:34:10.965Z,67.87
2018-06-16T14:35:11.141Z,71.29
2018-06-16T14:36:11.312Z,80.57
2018-06-16T14:37:11.522Z,65.43
2018-06-16T14:38:11.704Z,62.74
2018-06-16T14:39:11.866Z,72.02
2018-06-16T14:40:12.065Z,74.46
2018-06-16T14:43:54.524Z,67.14
2018-06-16T14:44:55.389Z,67.38
2018-06-16T14:45:54.809Z,62.99
2018-06-16T14:46:54.978Z,68.12
2018-06-16T14:47:55.148Z,95.46
2018-06-16T14:49:05.534Z,68.85
2018-06-16T14:49:59.549Z,67.14
2018-06-16T14:50:55.603Z,66.89
2018-06-16T14:51:55.797Z,64.94
2018-06-16T14:52:55.953Z,74.22
2018-06-16T14:54:03.349Z,72.02
2018-06-16T14:54:56.263Z,69.34
2018-06-16T14:55:56.487Z,73.49
2018-06-16T14:56:56.612Z,67.38
2018-06-16T14:57:56.793Z,73.00
2018-06-16T14:58:57.149Z,67.14
2018-06-16T14:59:57.226Z,73.49
2018-06-16T15:00:57.372Z,75.93
2018-06-16T15:01:57.543Z,73.97
2018-06-16T15:02:57.743Z,68.85
2018-06-16T15:03:57.960Z,72.27
2018-06-16T15:07:40.439Z,68.36